Lexington, MA (02420)

1:03 AM EST on December 03, 2016 (GMT -0500)
Lexington Burnham Farms | | Change Station

Elev 213 ft 42.46 °N, 71.21 °W | Updated 19 seconds ago

Scattered Clouds
Scattered Clouds
39.6 °F
Feels Like 40 °F
N
0.0
Wind Variable Wind from South
Gusts 1.0 mph

Today
High -- | Low -- °F
--% Chance of Precip.
Yesterday
High -- | Low -- °F
Precip. -- in
Pressure 29.78 in
Visibility 10.0 miles
Clouds Scattered Clouds 6500 ft
Scattered Clouds 8000 ft
Windchill 40 °F
Dew Point 32 °F
Humidity 74%
Rainfall 0.00 in
Snow Depth Not available.
6:57 AM 4:12 PM
Waxing Crescent, 12% visible
METAR KBED 030556Z AUTO 28007KT 10SM SCT065 SCT080 04/M03 A2974 RMK AO2 SLP084 T00441028 10050 20039 53008
Pressure 29.78 in
Visibility 10.0 miles
Clouds Scattered Clouds 6500 ft
Scattered Clouds 8000 ft
Windchill 40 °F
Dew Point 32 °F
Humidity 74%
Rainfall 0.00 in
Snow Depth Not available.
6:57 AM 4:12 PM
Waxing Crescent, 12% visible
METAR KBED 030556Z AUTO 28007KT 10SM SCT065 SCT080 04/M03 A2974 RMK AO2 SLP084 T00441028 10050 20039 53008

10-Day Weather Forecast

Almanac

Astronomy

Dec. 03, 2016 Rise Set
Actual Time
Civil Twilight
Nautical Twilight
Astronomical Twilight
Moon
Length of Visible Light
Length of Day
Tomorrow will be .
, % of the Moon is Illuminated

Today's Extremes

State Highs State Lows

Community

WunderPhotos

Upload Photos

1,955,432 photos uploaded!

WunderBlog® & News

Nearby

Air Quality

  Air Quality AQ Index Pollutant
Not available.

Snow Depth

Station Depth Elevation

Earthquake Activity

City Distance Mag. Time & Date
Minimum magnitude displayed is 2.5.

Coastal Water Temperatures

Place Temperature

Stations

Nearby Weather Stations

Station Location Temp. Windchill Dew Point Humidity Wind Precip. Elev Updated Type
                   

Watches & Warnings

There are currently no watches in effect.